createdAt,value
2023-06-21T00:00:12.241Z,3.3
2023-06-21T00:02:04.702Z,2.7
2023-06-21T00:04:02.889Z,2.8
2023-06-21T00:06:02.868Z,3.0
2023-06-21T00:08:02.817Z,2.4
2023-06-21T00:10:02.466Z,2.4
2023-06-21T00:12:02.261Z,2.8
2023-06-21T00:14:03.638Z,2.4
2023-06-21T00:16:02.162Z,2.9
2023-06-21T00:18:02.993Z,3.9
2023-06-21T00:20:06.888Z,3.1
2023-06-21T00:22:02.793Z,3.5
2023-06-21T00:24:03.328Z,4.1
2023-06-21T00:26:02.735Z,3.3
2023-06-21T00:28:02.173Z,4.0
2023-06-21T00:30:02.184Z,3.3
2023-06-21T00:32:02.241Z,3.8
2023-06-21T00:34:02.224Z,3.3
2023-06-21T00:36:02.152Z,3.7
2023-06-21T00:38:02.766Z,3.6
2023-06-21T00:40:04.204Z,4.5
2023-06-21T00:42:02.195Z,3.5
2023-06-21T00:44:02.817Z,5.4
2023-06-21T00:46:03.023Z,3.7
2023-06-21T00:48:02.223Z,3.1
2023-06-21T00:50:02.815Z,3.2
2023-06-21T00:52:02.842Z,3.9
2023-06-21T00:54:02.244Z,3.1
2023-06-21T00:56:03.124Z,2.5
2023-06-21T00:58:02.501Z,3.6
2023-06-21T01:00:02.483Z,3.3
2023-06-21T01:02:03.358Z,3.8
2023-06-21T01:04:02.471Z,3.3
2023-06-21T01:06:12.937Z,3.2
2023-06-21T01:08:12.373Z,3.7
2023-06-21T01:10:12.800Z,3.6
2023-06-21T01:12:11.840Z,3.5
2023-06-21T01:14:21.299Z,2.9
2023-06-21T01:16:12.061Z,2.5
2023-06-21T01:18:07.162Z,2.4
2023-06-21T01:20:09.273Z,2.4
2023-06-21T01:22:14.242Z,1.6
2023-06-21T01:24:14.676Z,1.7
2023-06-21T01:26:12.526Z,2.1
2023-06-21T01:28:21.288Z,1.7
2023-06-21T01:30:05.493Z,2.3
2023-06-21T01:32:03.778Z,1.7
2023-06-21T01:34:03.834Z,1.8
2023-06-21T01:36:04.978Z,2.1
2023-06-21T01:38:03.180Z,1.9
2023-06-21T01:40:09.918Z,2.0
2023-06-21T01:42:05.285Z,1.7
2023-06-21T01:44:03.112Z,2.1
2023-06-21T01:46:05.688Z,2.2
2023-06-21T01:48:04.753Z,2.1
2023-06-21T01:50:04.938Z,2.0
2023-06-21T01:52:05.570Z,2.9
2023-06-21T01:54:03.561Z,2.6
2023-06-21T01:56:07.081Z,2.3
2023-06-21T01:58:03.647Z,2.1
2023-06-21T02:00:05.268Z,3.0
2023-06-21T02:02:05.986Z,2.2
2023-06-21T02:04:04.140Z,1.7
2023-06-21T02:06:04.616Z,1.8
2023-06-21T02:08:05.374Z,2.5
2023-06-21T02:10:03.645Z,1.9
2023-06-21T02:12:02.977Z,1.8
2023-06-21T02:14:03.160Z,2.4
2023-06-21T02:16:03.152Z,2.3
2023-06-21T02:18:02.307Z,2.7
2023-06-21T02:20:11.691Z,2.2
2023-06-21T02:22:03.276Z,2.4
2023-06-21T02:24:02.847Z,2.1
2023-06-21T02:26:02.461Z,2.1
2023-06-21T02:28:02.995Z,2.4
2023-06-21T02:30:03.058Z,2.2
2023-06-21T02:32:02.542Z,2.9
2023-06-21T02:34:02.332Z,2.5
2023-06-21T02:36:02.325Z,2.6
2023-06-21T02:38:03.312Z,2.4
2023-06-21T02:40:10.096Z,2.5
2023-06-21T02:42:02.168Z,2.6
2023-06-21T02:44:02.462Z,2.1
2023-06-21T02:46:03.323Z,2.5
2023-06-21T02:48:02.280Z,2.4
2023-06-21T02:50:03.760Z,3.1
2023-06-21T02:52:02.236Z,3.0
2023-06-21T02:54:02.288Z,3.0
2023-06-21T02:56:02.511Z,3.5
2023-06-21T02:58:02.269Z,3.0
2023-06-21T03:00:06.750Z,2.9
2023-06-21T03:02:02.452Z,3.2
2023-06-21T03:04:02.248Z,3.0
2023-06-21T03:06:03.290Z,2.7
2023-06-21T03:08:04.647Z,2.6
2023-06-21T03:10:03.374Z,2.5
2023-06-21T03:12:08.175Z,2.3
2023-06-21T03:14:02.929Z,2.3
2023-06-21T03:16:03.104Z,2.6
2023-06-21T03:18:02.940Z,2.4
2023-06-21T03:20:03.512Z,3.1
2023-06-21T03:22:03.031Z,2.5
2023-06-21T03:24:04.119Z,3.2
2023-06-21T03:26:02.499Z,2.7
2023-06-21T03:28:02.732Z,2.4
2023-06-21T03:30:03.062Z,2.4
2023-06-21T03:32:03.157Z,2.7
2023-06-21T03:34:02.215Z,2.8
2023-06-21T03:36:04.041Z,2.6
2023-06-21T03:38:02.737Z,2.9
2023-06-21T03:40:04.194Z,2.6
2023-06-21T03:42:02.185Z,2.8
2023-06-21T03:44:02.455Z,3.2
2023-06-21T03:46:02.304Z,3.3
2023-06-21T03:48:06.008Z,3.1
2023-06-21T03:50:02.774Z,2.7
2023-06-21T03:52:02.411Z,2.6
2023-06-21T03:54:02.211Z,2.4
2023-06-21T03:56:02.791Z,3.1
2023-06-21T03:58:02.812Z,3.4
2023-06-21T04:00:04.489Z,3.5
2023-06-21T04:02:02.466Z,3.2
2023-06-21T04:04:02.249Z,3.4
2023-06-21T04:06:02.205Z,3.1
2023-06-21T04:08:02.615Z,3.3
2023-06-21T04:10:02.271Z,3.4
2023-06-21T04:12:03.443Z,3.4
2023-06-21T04:14:02.624Z,3.4
2023-06-21T04:16:02.196Z,3.7
2023-06-21T04:18:02.201Z,3.1
2023-06-21T04:20:07.879Z,3.6
2023-06-21T04:22:02.227Z,2.9
2023-06-21T04:24:02.243Z,3.3
2023-06-21T04:26:06.539Z,3.8
2023-06-21T04:28:02.747Z,3.4
2023-06-21T04:30:03.036Z,3.4
2023-06-21T04:32:04.858Z,4.0
2023-06-21T04:34:02.185Z,3.1
2023-06-21T04:36:02.710Z,2.7
2023-06-21T04:38:02.765Z,3.5
2023-06-21T04:40:16.090Z,3.3
2023-06-21T04:42:02.941Z,3.2
2023-06-21T04:44:03.052Z,2.5
2023-06-21T04:46:02.237Z,2.9
2023-06-21T04:48:05.145Z,3.0
2023-06-21T04:50:19.642Z,2.5
2023-06-21T04:52:03.045Z,2.7
2023-06-21T04:54:02.963Z,3.0
2023-06-21T04:56:03.888Z,2.5
2023-06-21T04:58:03.769Z,2.5
2023-06-21T05:00:06.846Z,2.3
2023-06-21T05:02:03.074Z,2.4
2023-06-21T05:04:02.263Z,2.6
2023-06-21T05:06:02.783Z,2.3
2023-06-21T05:08:05.019Z,2.8
2023-06-21T05:10:02.203Z,3.2
2023-06-21T05:12:03.162Z,2.6
2023-06-21T05:14:02.820Z,2.6
2023-06-21T05:16:02.786Z,2.5
2023-06-21T05:18:02.221Z,2.4
2023-06-21T05:20:04.411Z,2.6
2023-06-21T05:22:02.213Z,2.4
2023-06-21T05:24:02.228Z,2.5
2023-06-21T05:26:05.143Z,2.6
2023-06-21T05:28:02.182Z,2.4
2023-06-21T05:30:02.298Z,2.4
2023-06-21T05:32:02.311Z,2.8
2023-06-21T05:34:02.737Z,2.5
2023-06-21T05:36:02.841Z,2.2
2023-06-21T05:38:03.951Z,2.6
2023-06-21T05:40:03.370Z,2.8
2023-06-21T05:42:02.237Z,2.4
2023-06-21T05:44:03.107Z,2.3
2023-06-21T05:46:02.244Z,2.1
2023-06-21T05:48:02.885Z,2.3
2023-06-21T05:50:04.185Z,2.3
2023-06-21T05:52:02.275Z,2.6
2023-06-21T05:54:02.769Z,2.2
2023-06-21T05:56:03.187Z,2.1
2023-06-21T05:58:02.366Z,2.3
2023-06-21T06:00:05.570Z,2.2
2023-06-21T06:02:02.696Z,2.5
2023-06-21T06:04:02.364Z,2.6
2023-06-21T06:06:02.258Z,2.3
2023-06-21T06:08:02.413Z,2.5
2023-06-21T06:10:02.477Z,2.8
2023-06-21T06:12:02.231Z,2.8
2023-06-21T06:14:03.557Z,2.2
2023-06-21T06:16:03.054Z,2.2
2023-06-21T06:18:02.993Z,2.2
2023-06-21T06:20:06.160Z,2.2
2023-06-21T06:22:02.316Z,2.4
2023-06-21T06:24:02.166Z,2.4
2023-06-21T06:26:03.114Z,2.1
2023-06-21T06:28:02.212Z,1.9
2023-06-21T06:30:03.302Z,2.0
2023-06-21T06:32:02.221Z,2.2
2023-06-21T06:34:02.218Z,2.1
2023-06-21T06:36:02.187Z,2.6
2023-06-21T06:38:02.562Z,3.1
2023-06-21T06:40:05.028Z,2.6
2023-06-21T06:42:02.371Z,2.7
2023-06-21T06:44:02.300Z,2.6
2023-06-21T06:46:02.246Z,2.2
2023-06-21T06:48:02.259Z,2.0
2023-06-21T06:50:04.683Z,2.4
2023-06-21T06:52:02.243Z,2.7
2023-06-21T06:54:04.205Z,1.9
2023-06-21T06:56:02.235Z,1.9
2023-06-21T06:58:06.000Z,1.8
2023-06-21T07:00:06.533Z,1.8
2023-06-21T07:02:03.006Z,2.0
2023-06-21T07:04:02.552Z,2.6
2023-06-21T07:06:02.301Z,2.3
2023-06-21T07:08:03.917Z,2.8
2023-06-21T07:10:02.296Z,2.4
2023-06-21T07:12:03.273Z,2.2
2023-06-21T07:14:02.464Z,2.1
2023-06-21T07:16:02.358Z,2.2
2023-06-21T07:18:02.952Z,2.2
2023-06-21T07:20:03.669Z,2.3
2023-06-21T07:22:02.197Z,2.5
2023-06-21T07:24:02.972Z,2.4
2023-06-21T07:26:03.554Z,2.4
2023-06-21T07:28:02.202Z,2.1
2023-06-21T07:30:03.240Z,2.0
2023-06-21T07:32:02.267Z,1.8
2023-06-21T07:34:05.990Z,2.8
2023-06-21T07:36:02.706Z,2.0
2023-06-21T07:38:04.162Z,3.0
2023-06-21T07:40:03.784Z,1.9
2023-06-21T07:42:13.969Z,2.4
2023-06-21T07:44:02.191Z,2.6
2023-06-21T07:46:14.487Z,1.9
2023-06-21T07:48:02.957Z,1.9
2023-06-21T07:50:16.402Z,1.9
2023-06-21T07:52:02.847Z,2.2
2023-06-21T07:54:02.174Z,2.3
2023-06-21T07:56:02.255Z,2.1
2023-06-21T07:58:02.219Z,2.0
2023-06-21T08:00:03.781Z,2.0
2023-06-21T08:02:03.112Z,2.2
2023-06-21T08:04:02.474Z,1.9
2023-06-21T08:06:02.245Z,2.1
2023-06-21T08:08:03.179Z,2.2
2023-06-21T08:10:03.234Z,2.3
2023-06-21T08:12:02.251Z,2.6
2023-06-21T08:14:02.420Z,2.4
2023-06-21T08:16:02.211Z,2.5
2023-06-21T08:18:02.819Z,2.4
2023-06-21T08:20:03.730Z,2.4
2023-06-21T08:22:02.764Z,2.4
2023-06-21T08:24:02.231Z,2.4
2023-06-21T08:26:02.477Z,2.4
2023-06-21T08:28:02.448Z,3.0
2023-06-21T08:30:02.885Z,2.3
2023-06-21T08:32:03.995Z,2.6
2023-06-21T08:34:02.215Z,2.2
2023-06-21T08:36:02.272Z,2.8
2023-06-21T08:38:11.789Z,2.5
2023-06-21T08:40:02.407Z,2.8
2023-06-21T08:42:03.117Z,2.3
2023-06-21T08:44:02.976Z,2.7
2023-06-21T08:46:08.671Z,2.7
2023-06-21T08:48:07.406Z,2.3
2023-06-21T08:50:05.879Z,2.6
2023-06-21T08:52:07.675Z,2.8
2023-06-21T08:54:07.297Z,2.5
2023-06-21T08:56:06.334Z,2.2
2023-06-21T08:58:08.423Z,2.3
2023-06-21T09:00:04.304Z,2.4
2023-06-21T09:02:14.262Z,2.2
2023-06-21T09:04:05.772Z,3.0
2023-06-21T09:06:06.534Z,3.2
2023-06-21T09:08:05.239Z,2.4
2023-06-21T09:10:04.480Z,2.7
2023-06-21T09:12:02.174Z,2.7
2023-06-21T09:14:04.549Z,2.6
2023-06-21T09:16:03.267Z,2.7
2023-06-21T09:18:02.309Z,2.9
2023-06-21T09:20:04.302Z,2.9
2023-06-21T09:22:02.222Z,2.6
2023-06-21T09:24:02.435Z,2.3
2023-06-21T09:26:04.437Z,2.4
2023-06-21T09:28:02.223Z,2.5
2023-06-21T09:30:17.173Z,2.5
2023-06-21T09:32:02.568Z,2.3
2023-06-21T09:34:02.853Z,2.6
2023-06-21T09:36:02.324Z,2.7
2023-06-21T09:38:02.634Z,3.1
2023-06-21T09:40:02.462Z,3.2
2023-06-21T09:42:03.046Z,2.3
2023-06-21T09:44:03.593Z,3.0
2023-06-21T09:46:04.789Z,3.2
2023-06-21T09:48:02.442Z,3.3
2023-06-21T09:50:06.832Z,2.4
2023-06-21T09:52:03.454Z,2.6
2023-06-21T09:54:08.085Z,2.5
2023-06-21T09:56:03.353Z,2.1
2023-06-21T09:58:02.980Z,3.1
2023-06-21T10:00:06.313Z,2.9
2023-06-21T10:02:03.246Z,2.7
2023-06-21T10:04:02.806Z,2.6
2023-06-21T10:06:03.937Z,2.4
2023-06-21T10:08:05.500Z,2.4
2023-06-21T10:10:07.761Z,2.5
2023-06-21T10:12:02.171Z,2.2
2023-06-21T10:14:03.015Z,2.8
2023-06-21T10:16:03.866Z,2.3
2023-06-21T10:18:05.909Z,2.2
2023-06-21T10:20:05.237Z,2.0
2023-06-21T10:22:05.723Z,2.2
2023-06-21T10:24:06.801Z,2.3
2023-06-21T10:26:06.394Z,2.4
2023-06-21T10:28:07.718Z,2.7
2023-06-21T10:30:03.452Z,2.6
2023-06-21T10:32:05.693Z,2.6
2023-06-21T10:34:06.141Z,2.2
2023-06-21T10:36:04.843Z,2.4
2023-06-21T10:38:09.736Z,2.2
2023-06-21T10:40:11.580Z,2.5
2023-06-21T10:42:04.580Z,2.2
2023-06-21T10:44:05.485Z,2.7
2023-06-21T10:46:05.809Z,2.4
2023-06-21T10:48:04.091Z,2.0
2023-06-21T10:50:03.387Z,1.8
2023-06-21T10:52:03.786Z,2.0
2023-06-21T10:54:02.906Z,1.9
2023-06-21T10:56:04.950Z,2.1
2023-06-21T10:58:03.663Z,2.5
2023-06-21T11:00:05.812Z,3.4
2023-06-21T11:02:03.392Z,2.2
2023-06-21T11:04:04.204Z,2.5
2023-06-21T11:06:21.235Z,2.1
2023-06-21T11:08:05.602Z,2.0
2023-06-21T11:10:05.123Z,2.8
2023-06-21T11:12:10.036Z,2.3
2023-06-21T11:14:03.833Z,2.9
2023-06-21T11:16:11.591Z,2.2
2023-06-21T11:18:04.506Z,2.3
2023-06-21T11:20:19.698Z,2.2
2023-06-21T11:22:16.265Z,2.4
2023-06-21T11:24:07.035Z,2.3
2023-06-21T11:26:15.409Z,2.4
2023-06-21T11:28:21.338Z,2.8
2023-06-21T11:30:10.282Z,2.2
2023-06-21T11:32:12.685Z,2.7
2023-06-21T11:34:05.115Z,2.8
2023-06-21T11:36:04.497Z,2.4
2023-06-21T11:38:02.450Z,2.5
2023-06-21T11:40:04.663Z,2.2
2023-06-21T11:42:03.434Z,2.3
2023-06-21T11:44:02.292Z,2.8
2023-06-21T11:46:04.354Z,2.8
2023-06-21T11:48:06.494Z,2.1
2023-06-21T11:50:14.399Z,2.8
2023-06-21T11:52:04.134Z,2.7
2023-06-21T11:54:03.397Z,2.6
2023-06-21T11:56:03.868Z,2.7
2023-06-21T11:58:02.166Z,2.4
2023-06-21T12:00:04.412Z,2.5
2023-06-21T12:02:13.244Z,1.8
2023-06-21T12:04:02.804Z,2.3
2023-06-21T12:06:04.029Z,2.2
2023-06-21T12:08:03.101Z,1.9
2023-06-21T12:10:02.243Z,2.7
2023-06-21T12:12:03.350Z,2.8
2023-06-21T12:14:03.671Z,2.5
2023-06-21T12:16:04.419Z,2.3
2023-06-21T12:18:06.724Z,2.4
2023-06-21T12:20:05.605Z,2.7
2023-06-21T12:22:03.726Z,2.4
2023-06-21T12:24:02.365Z,2.5
2023-06-21T12:26:04.365Z,1.8
2023-06-21T12:28:02.800Z,2.0
2023-06-21T12:30:04.406Z,1.6
2023-06-21T12:32:04.643Z,1.8
2023-06-21T12:34:04.715Z,1.8
2023-06-21T12:36:15.588Z,1.4
2023-06-21T12:38:10.916Z,1.5
2023-06-21T12:40:05.940Z,1.5
2023-06-21T12:42:05.946Z,1.8
2023-06-21T12:44:04.976Z,1.4
2023-06-21T12:46:03.388Z,1.5
2023-06-21T12:48:02.510Z,1.3
2023-06-21T12:50:02.464Z,1.4
2023-06-21T12:52:04.112Z,1.5
2023-06-21T12:54:04.345Z,1.8
2023-06-21T12:56:04.410Z,2.0
2023-06-21T12:58:02.177Z,1.9
2023-06-21T13:00:03.817Z,1.9
2023-06-21T13:02:02.833Z,1.7
2023-06-21T13:04:07.557Z,1.8
2023-06-21T13:06:03.522Z,1.9
2023-06-21T13:08:02.286Z,1.5
2023-06-21T13:10:02.169Z,1.4
2023-06-21T13:12:02.593Z,1.8
2023-06-21T13:14:05.301Z,1.9
2023-06-21T13:16:02.492Z,1.7
2023-06-21T13:18:02.247Z,1.7
2023-06-21T13:20:02.285Z,2.0
2023-06-21T13:22:02.397Z,2.0
2023-06-21T13:24:03.461Z,1.9
2023-06-21T13:26:02.243Z,1.9
2023-06-21T13:28:02.226Z,1.9
2023-06-21T13:30:05.197Z,2.3
2023-06-21T13:32:02.365Z,2.2
2023-06-21T13:34:02.389Z,2.1
2023-06-21T13:36:03.274Z,2.0
2023-06-21T13:38:03.815Z,2.2
2023-06-21T13:40:02.318Z,2.2
2023-06-21T13:42:02.326Z,2.5
2023-06-21T13:44:02.192Z,2.2
2023-06-21T13:46:03.151Z,2.1
2023-06-21T13:48:03.604Z,2.0
2023-06-21T13:50:04.791Z,1.8
2023-06-21T13:52:02.217Z,2.0
2023-06-21T13:54:02.336Z,2.3
2023-06-21T13:56:02.486Z,2.1
2023-06-21T13:58:02.259Z,2.1
2023-06-21T14:00:04.946Z,2.2
2023-06-21T14:02:02.194Z,2.2
2023-06-21T14:04:04.830Z,2.1
2023-06-21T14:06:02.244Z,2.2
2023-06-21T14:08:03.303Z,1.9
2023-06-21T14:10:02.810Z,2.2
2023-06-21T14:12:03.284Z,2.1
2023-06-21T14:14:02.277Z,2.5
2023-06-21T14:16:02.240Z,2.3
2023-06-21T14:18:04.359Z,2.3
2023-06-21T14:20:06.894Z,2.7
2023-06-21T14:22:02.910Z,2.5
2023-06-21T14:24:02.582Z,2.2
2023-06-21T14:26:02.375Z,2.1
2023-06-21T14:28:02.203Z,2.5
2023-06-21T14:30:03.928Z,2.0
2023-06-21T14:32:02.821Z,1.7
2023-06-21T14:34:02.777Z,1.9
2023-06-21T14:36:02.453Z,1.7
2023-06-21T14:38:02.665Z,2.6
2023-06-21T14:40:04.070Z,2.7
2023-06-21T14:42:02.149Z,2.3
2023-06-21T14:44:03.128Z,1.9
2023-06-21T14:46:02.364Z,1.9
2023-06-21T14:48:02.462Z,1.8
2023-06-21T14:50:04.390Z,1.9
2023-06-21T14:52:02.244Z,2.1
2023-06-21T14:54:03.560Z,2.0
2023-06-21T14:56:02.406Z,1.9
2023-06-21T14:58:02.382Z,2.0
2023-06-21T15:00:03.370Z,2.2
2023-06-21T15:02:02.294Z,2.2
2023-06-21T15:04:02.196Z,2.0
2023-06-21T15:06:06.100Z,2.0
2023-06-21T15:08:02.402Z,2.3
2023-06-21T15:10:02.421Z,2.1
2023-06-21T15:12:05.805Z,2.1
2023-06-21T15:14:02.763Z,2.2
2023-06-21T15:16:03.092Z,2.3
2023-06-21T15:18:02.691Z,2.2
2023-06-21T15:20:03.306Z,2.1
2023-06-21T15:22:03.231Z,2.0
2023-06-21T15:24:06.075Z,2.0
2023-06-21T15:26:03.985Z,2.4
2023-06-21T15:28:03.316Z,2.1
2023-06-21T15:30:03.435Z,2.1
2023-06-21T15:32:02.214Z,2.4
2023-06-21T15:34:08.051Z,1.9
2023-06-21T15:36:02.835Z,2.1
2023-06-21T15:38:02.384Z,2.5
2023-06-21T15:40:02.964Z,2.9
2023-06-21T15:42:02.931Z,3.0
2023-06-21T15:44:02.920Z,2.5
2023-06-21T15:46:02.361Z,2.5
2023-06-21T15:48:03.243Z,3.4
2023-06-21T15:50:06.787Z,4.7
2023-06-21T15:52:02.807Z,4.2
2023-06-21T15:54:02.469Z,2.8
2023-06-21T15:56:02.242Z,2.3
2023-06-21T15:58:02.361Z,2.6
2023-06-21T16:00:03.659Z,2.4
2023-06-21T16:02:03.041Z,2.2
2023-06-21T16:04:03.987Z,2.0
2023-06-21T16:06:02.168Z,2.4
2023-06-21T16:08:02.510Z,2.0
2023-06-21T16:10:02.454Z,2.1
2023-06-21T16:12:02.466Z,2.3
2023-06-21T16:14:03.111Z,2.5
2023-06-21T16:16:02.922Z,2.1
2023-06-21T16:18:02.240Z,2.2
2023-06-21T16:20:02.984Z,2.3
2023-06-21T16:22:02.829Z,2.4
2023-06-21T16:24:03.619Z,2.5
2023-06-21T16:26:02.732Z,2.3
2023-06-21T16:28:02.185Z,2.4
2023-06-21T16:30:02.235Z,2.4
2023-06-21T16:32:02.333Z,2.1
2023-06-21T16:34:02.396Z,2.2
2023-06-21T16:36:02.930Z,2.7
2023-06-21T16:38:03.181Z,2.4
2023-06-21T16:40:02.167Z,2.2
2023-06-21T16:42:02.193Z,2.4
2023-06-21T16:44:03.335Z,2.5
2023-06-21T16:46:02.234Z,2.1
2023-06-21T16:48:02.836Z,2.2
2023-06-21T16:50:02.256Z,2.6
2023-06-21T16:52:02.161Z,2.5
2023-06-21T16:54:02.187Z,2.4
2023-06-21T16:56:02.399Z,2.2
2023-06-21T16:58:03.798Z,2.2
2023-06-21T17:00:03.362Z,2.5
2023-06-21T17:02:03.942Z,2.5
2023-06-21T17:04:02.279Z,2.0
2023-06-21T17:06:02.180Z,2.0
2023-06-21T17:08:02.201Z,2.5
2023-06-21T17:10:03.540Z,2.8
2023-06-21T17:12:03.470Z,2.1
2023-06-21T17:14:03.761Z,2.1
2023-06-21T17:16:02.234Z,2.1
2023-06-21T17:18:02.354Z,2.1
2023-06-21T17:20:02.238Z,2.0
2023-06-21T17:22:03.347Z,1.9
2023-06-21T17:24:03.094Z,2.1
2023-06-21T17:26:02.941Z,2.1
2023-06-21T17:28:02.430Z,1.7
2023-06-21T17:30:03.287Z,2.0
2023-06-21T17:32:03.205Z,2.1
2023-06-21T17:34:03.411Z,2.4
2023-06-21T17:36:02.967Z,1.8
2023-06-21T17:38:02.930Z,2.1
2023-06-21T17:40:02.224Z,2.0
2023-06-21T17:42:02.303Z,2.2
2023-06-21T17:44:02.252Z,2.2
2023-06-21T17:46:02.764Z,1.9
2023-06-21T17:48:02.400Z,1.9
2023-06-21T17:50:02.353Z,2.1
2023-06-21T17:52:02.263Z,2.1
2023-06-21T17:54:02.229Z,2.2
2023-06-21T17:56:03.181Z,2.6
2023-06-21T17:58:02.942Z,2.4
2023-06-21T18:00:03.872Z,2.0
2023-06-21T18:02:02.569Z,2.4
2023-06-21T18:04:02.943Z,2.0
2023-06-21T18:06:02.291Z,2.2
2023-06-21T18:08:02.377Z,2.2
2023-06-21T18:10:03.035Z,2.1
2023-06-21T18:12:02.495Z,2.1
2023-06-21T18:14:02.338Z,2.2
2023-06-21T18:16:02.220Z,2.1
2023-06-21T18:18:03.058Z,2.3
2023-06-21T18:20:02.236Z,2.4
2023-06-21T18:22:12.897Z,2.2
2023-06-21T18:24:09.555Z,2.0
2023-06-21T18:26:02.341Z,2.1
2023-06-21T18:28:02.247Z,1.9
2023-06-21T18:30:05.218Z,2.0
2023-06-21T18:32:03.011Z,1.9
2023-06-21T18:34:03.100Z,2.0
2023-06-21T18:36:02.672Z,1.9
2023-06-21T18:38:02.524Z,1.8
2023-06-21T18:40:02.184Z,1.9
2023-06-21T18:42:02.390Z,2.4
2023-06-21T18:44:02.270Z,2.0
2023-06-21T18:46:04.108Z,1.8
2023-06-21T18:48:02.568Z,1.9
2023-06-21T18:50:02.266Z,2.5
2023-06-21T18:52:02.981Z,2.1
2023-06-21T18:54:02.245Z,2.0
2023-06-21T18:56:03.051Z,2.3
2023-06-21T18:58:02.407Z,1.8
2023-06-21T19:00:05.452Z,2.1
2023-06-21T19:02:02.317Z,1.8
2023-06-21T19:04:02.738Z,1.9
2023-06-21T19:06:02.192Z,1.8
2023-06-21T19:08:02.812Z,1.6
2023-06-21T19:10:03.122Z,1.9
2023-06-21T19:12:03.155Z,1.6
2023-06-21T19:14:02.417Z,1.9
2023-06-21T19:16:02.429Z,2.0
2023-06-21T19:18:02.729Z,1.6
2023-06-21T19:20:04.810Z,1.8
2023-06-21T19:22:02.461Z,1.8
2023-06-21T19:24:02.971Z,2.0
2023-06-21T19:26:02.417Z,1.8
2023-06-21T19:28:02.383Z,1.8
2023-06-21T19:30:03.061Z,1.7
2023-06-21T19:32:02.276Z,2.0
2023-06-21T19:34:02.396Z,1.8
2023-06-21T19:36:03.636Z,2.1
2023-06-21T19:38:02.230Z,1.9
2023-06-21T19:40:04.821Z,1.7
2023-06-21T19:42:02.251Z,1.5
2023-06-21T19:44:03.320Z,1.8
2023-06-21T19:46:02.297Z,1.6
2023-06-21T19:48:02.752Z,1.9
2023-06-21T19:50:02.211Z,1.9
2023-06-21T19:52:02.378Z,1.9
2023-06-21T19:54:02.868Z,1.7
2023-06-21T19:56:02.928Z,1.6
2023-06-21T19:58:03.182Z,1.5
2023-06-21T20:00:04.764Z,1.4
2023-06-21T20:02:03.392Z,1.5
2023-06-21T20:04:02.755Z,1.7
2023-06-21T20:06:02.757Z,1.8
2023-06-21T20:08:02.322Z,1.8
2023-06-21T20:10:02.641Z,1.6
2023-06-21T20:12:02.972Z,1.7
2023-06-21T20:14:02.505Z,1.8
2023-06-21T20:16:09.811Z,1.7
2023-06-21T20:18:02.915Z,1.7
2023-06-21T20:20:04.450Z,1.9
2023-06-21T20:22:02.377Z,1.7
2023-06-21T20:24:02.753Z,1.6
2023-06-21T20:26:04.145Z,1.9
2023-06-21T20:28:02.538Z,1.8
2023-06-21T20:30:02.227Z,1.7
2023-06-21T20:32:05.012Z,1.6
2023-06-21T20:34:02.380Z,1.6
2023-06-21T20:36:02.372Z,1.7
2023-06-21T20:38:02.415Z,1.7
2023-06-21T20:40:05.629Z,1.7
2023-06-21T20:42:03.201Z,2.0
2023-06-21T20:44:02.453Z,1.7
2023-06-21T20:46:03.794Z,1.7
2023-06-21T20:48:04.096Z,1.7
2023-06-21T20:50:02.216Z,1.7
2023-06-21T20:52:02.280Z,1.8
2023-06-21T20:54:03.018Z,1.8
2023-06-21T20:56:04.501Z,1.8
2023-06-21T20:58:03.629Z,1.7
2023-06-21T21:00:06.648Z,1.7
2023-06-21T21:02:02.285Z,1.6
2023-06-21T21:04:02.770Z,1.7
2023-06-21T21:06:02.415Z,1.6
2023-06-21T21:08:02.810Z,1.8
2023-06-21T21:10:03.532Z,1.7
2023-06-21T21:12:03.161Z,1.8
2023-06-21T21:14:03.105Z,1.7
2023-06-21T21:16:02.193Z,1.6
2023-06-21T21:18:02.297Z,1.8
2023-06-21T21:20:02.261Z,1.7
2023-06-21T21:22:02.588Z,1.8
2023-06-21T21:24:02.473Z,1.8
2023-06-21T21:26:02.568Z,2.0
2023-06-21T21:28:02.236Z,1.8
2023-06-21T21:30:02.537Z,1.9
2023-06-21T21:32:02.884Z,1.9
2023-06-21T21:34:02.792Z,1.9
2023-06-21T21:36:03.097Z,2.0
2023-06-21T21:38:06.438Z,2.1
2023-06-21T21:40:02.193Z,2.0
2023-06-21T21:42:02.808Z,2.0
2023-06-21T21:44:02.460Z,2.0
2023-06-21T21:46:02.807Z,2.1
2023-06-21T21:48:03.204Z,2.0
2023-06-21T21:50:02.371Z,1.9
2023-06-21T21:52:02.158Z,2.1
2023-06-21T21:54:03.000Z,2.3
2023-06-21T21:56:02.380Z,1.9
2023-06-21T21:58:02.399Z,2.3
2023-06-21T22:00:04.349Z,2.1
2023-06-21T22:02:02.315Z,2.1
2023-06-21T22:04:02.426Z,1.9
2023-06-21T22:06:02.363Z,2.2
2023-06-21T22:08:02.979Z,2.2
2023-06-21T22:10:03.238Z,2.2
2023-06-21T22:12:03.103Z,2.2
2023-06-21T22:14:02.445Z,2.0
2023-06-21T22:16:03.388Z,2.3
2023-06-21T22:18:02.265Z,2.2
2023-06-21T22:20:11.012Z,2.1
2023-06-21T22:22:03.370Z,2.1
2023-06-21T22:24:03.322Z,2.3
2023-06-21T22:26:04.614Z,2.2
2023-06-21T22:28:02.457Z,1.9
2023-06-21T22:30:03.612Z,2.2
2023-06-21T22:32:02.358Z,2.1
2023-06-21T22:34:02.375Z,2.5
2023-06-21T22:36:03.110Z,2.2
2023-06-21T22:38:02.240Z,2.1
2023-06-21T22:40:02.219Z,2.4
2023-06-21T22:42:02.379Z,2.3
2023-06-21T22:44:02.868Z,2.4
2023-06-21T22:46:04.202Z,2.1
2023-06-21T22:48:07.909Z,2.4
2023-06-21T22:50:02.252Z,2.3
2023-06-21T22:52:02.203Z,2.5
2023-06-21T22:54:03.079Z,2.6
2023-06-21T22:56:02.404Z,2.2
2023-06-21T22:58:04.562Z,2.3
2023-06-21T23:00:03.560Z,2.1
2023-06-21T23:02:02.595Z,2.2
2023-06-21T23:04:02.982Z,2.7
2023-06-21T23:06:02.436Z,2.5
2023-06-21T23:08:02.950Z,2.5
2023-06-21T23:10:08.822Z,2.7
2023-06-21T23:12:03.208Z,2.5
2023-06-21T23:14:02.251Z,2.5
2023-06-21T23:16:02.272Z,3.0
2023-06-21T23:18:03.621Z,2.3
2023-06-21T23:20:04.544Z,2.6
2023-06-21T23:22:02.353Z,2.5
2023-06-21T23:24:05.716Z,2.8
2023-06-21T23:26:02.974Z,2.6
2023-06-21T23:28:08.979Z,2.3
2023-06-21T23:30:04.083Z,2.4
2023-06-21T23:32:02.347Z,2.5
2023-06-21T23:34:03.039Z,2.5
2023-06-21T23:36:04.145Z,2.4
2023-06-21T23:38:02.358Z,2.4
2023-06-21T23:40:03.519Z,2.6
2023-06-21T23:42:02.766Z,2.7
2023-06-21T23:44:02.371Z,2.6
2023-06-21T23:46:03.925Z,2.3
2023-06-21T23:48:02.453Z,2.9
2023-06-21T23:50:03.347Z,2.5
2023-06-21T23:52:02.381Z,2.6
2023-06-21T23:54:02.423Z,2.5
2023-06-21T23:56:04.030Z,2.3
2023-06-21T23:58:02.406Z,2.5
